sensor_id;sensor_type;location;lat;lon;timestamp;pressure;altitude;pressure_sealevel;temperature;humidity
70902;BME280;58548;47.210;8.618;2022-11-13T00:01:24;94984.63;;;15.87;43.68
70902;BME280;58548;47.210;8.618;2022-11-13T00:03:52;94964.31;;;15.80;43.96
70902;BME280;58548;47.210;8.618;2022-11-13T00:06:21;94962.09;;;15.84;43.41
70902;BME280;58548;47.210;8.618;2022-11-13T00:08:54;94956.47;;;16.07;43.20
70902;BME280;58548;47.210;8.618;2022-11-13T00:11:20;94974.50;;;16.04;43.30
70902;BME280;58548;47.210;8.618;2022-11-13T00:13:47;94971.47;;;16.00;43.37
70902;BME280;58548;47.210;8.618;2022-11-13T00:16:16;94949.16;;;15.89;43.25
70902;BME280;58548;47.210;8.618;2022-11-13T00:18:46;94966.19;;;16.00;43.18
70902;BME280;58548;47.210;8.618;2022-11-13T00:21:15;94932.09;;;15.78;43.41
70902;BME280;58548;47.210;8.618;2022-11-13T00:23:42;94967.41;;;16.18;43.10
70902;BME280;58548;47.210;8.618;2022-11-13T00:26:22;94948.56;;;15.94;43.14
70902;BME280;58548;47.210;8.618;2022-11-13T00:29:08;94963.75;;;15.92;43.46
70902;BME280;58548;47.210;8.618;2022-11-13T00:31:34;94948.69;;;15.65;43.93
70902;BME280;58548;47.210;8.618;2022-11-13T00:34:05;94932.72;;;15.80;43.26
70902;BME280;58548;47.210;8.618;2022-11-13T00:36:35;94941.41;;;15.61;43.12
70902;BME280;58548;47.210;8.618;2022-11-13T00:39:02;94954.56;;;15.81;43.48
70902;BME280;58548;47.210;8.618;2022-11-13T00:41:30;94920.34;;;15.61;42.93
70902;BME280;58548;47.210;8.618;2022-11-13T00:43:57;94952.00;;;15.88;43.65
70902;BME280;58548;47.210;8.618;2022-11-13T00:46:25;94933.13;;;15.77;43.20
70902;BME280;58548;47.210;8.618;2022-11-13T00:48:51;94943.50;;;15.86;43.41
70902;BME280;58548;47.210;8.618;2022-11-13T00:51:20;94945.13;;;15.87;43.46
70902;BME280;58548;47.210;8.618;2022-11-13T00:53:47;94927.22;;;15.68;43.59
70902;BME280;58548;47.210;8.618;2022-11-13T00:56:15;94915.06;;;15.61;43.49
70902;BME280;58548;47.210;8.618;2022-11-13T00:58:43;94908.19;;;15.66;43.03
70902;BME280;58548;47.210;8.618;2022-11-13T01:01:14;94933.31;;;15.82;43.64
70902;BME280;58548;47.210;8.618;2022-11-13T01:03:43;94927.06;;;15.83;42.95
70902;BME280;58548;47.210;8.618;2022-11-13T01:06:29;94921.97;;;15.82;43.06
70902;BME280;58548;47.210;8.618;2022-11-13T01:08:58;94876.97;;;15.57;43.24
70902;BME280;58548;47.210;8.618;2022-11-13T01:11:26;94912.66;;;15.66;43.23
70902;BME280;58548;47.210;8.618;2022-11-13T01:13:53;94898.81;;;15.30;43.82
70902;BME280;58548;47.210;8.618;2022-11-13T01:16:25;94921.72;;;15.43;43.72
70902;BME280;58548;47.210;8.618;2022-11-13T01:18:53;94900.44;;;15.45;43.78
70902;BME280;58548;47.210;8.618;2022-11-13T01:21:25;94902.91;;;15.53;43.51
70902;BME280;58548;47.210;8.618;2022-11-13T01:23:52;94866.41;;;15.36;43.65
70902;BME280;58548;47.210;8.618;2022-11-13T01:26:24;94896.84;;;15.66;43.75
70902;BME280;58548;47.210;8.618;2022-11-13T01:28:52;94876.59;;;15.60;43.49
70902;BME280;58548;47.210;8.618;2022-11-13T01:31:23;94896.84;;;15.66;43.82
70902;BME280;58548;47.210;8.618;2022-11-13T01:33:50;94850.44;;;15.51;43.50
70902;BME280;58548;47.210;8.618;2022-11-13T01:36:22;94898.09;;;15.77;43.57
70902;BME280;58548;47.210;8.618;2022-11-13T01:38:51;94899.69;;;15.78;43.71
70902;BME280;58548;47.210;8.618;2022-11-13T01:41:24;94899.66;;;15.58;43.77
70902;BME280;58548;47.210;8.618;2022-11-13T01:43:54;94883.88;;;15.64;43.55
70902;BME280;58548;47.210;8.618;2022-11-13T01:51:34;94878.63;;;15.78;43.69
70902;BME280;58548;47.210;8.618;2022-11-13T01:54:05;94876.41;;;15.95;43.12
70902;BME280;58548;47.210;8.618;2022-11-13T01:56:35;94851.25;;;15.72;43.07
70902;BME280;58548;47.210;8.618;2022-11-13T01:59:08;94838.31;;;15.64;43.36
70902;BME280;58548;47.210;8.618;2022-11-13T02:01:39;94844.59;;;15.70;43.18
70902;BME280;58548;47.210;8.618;2022-11-13T02:04:06;94858.97;;;15.80;43.35
70902;BME280;58548;47.210;8.618;2022-11-13T02:06:39;94848.03;;;15.70;43.40
70902;BME280;58548;47.210;8.618;2022-11-13T02:09:07;94855.13;;;15.83;43.62
70902;BME280;58548;47.210;8.618;2022-11-13T02:11:36;94850.91;;;15.89;43.40
70902;BME280;58548;47.210;8.618;2022-11-13T02:14:05;94850.47;;;15.92;43.48
70902;BME280;58548;47.210;8.618;2022-11-13T02:16:36;94838.16;;;15.86;43.18
70902;BME280;58548;47.210;8.618;2022-11-13T02:19:16;94862.03;;;15.91;43.31
70902;BME280;58548;47.210;8.618;2022-11-13T02:24:29;94842.97;;;15.75;42.67
70902;BME280;58548;47.210;8.618;2022-11-13T02:27:03;94805.28;;;15.55;42.50
70902;BME280;58548;47.210;8.618;2022-11-13T02:29:31;94838.53;;;15.82;42.74
70902;BME280;58548;47.210;8.618;2022-11-13T02:31:57;94813.19;;;15.68;42.38
70902;BME280;58548;47.210;8.618;2022-11-13T02:34:30;94805.72;;;15.65;42.93
70902;BME280;58548;47.210;8.618;2022-11-13T02:36:56;94807.13;;;15.67;42.50
70902;BME280;58548;47.210;8.618;2022-11-13T02:39:24;94812.97;;;15.76;42.11
70902;BME280;58548;47.210;8.618;2022-11-13T02:41:53;94820.69;;;15.85;41.81
70902;BME280;58548;47.210;8.618;2022-11-13T02:44:19;94814.00;;;15.75;41.85
70902;BME280;58548;47.210;8.618;2022-11-13T02:46:45;94821.91;;;15.75;42.42
70902;BME280;58548;47.210;8.618;2022-11-13T02:49:11;94765.22;;;15.39;42.64
70902;BME280;58548;47.210;8.618;2022-11-13T02:51:37;94800.84;;;15.62;42.20
70902;BME280;58548;47.210;8.618;2022-11-13T02:54:05;94802.66;;;15.55;42.40
70902;BME280;58548;47.210;8.618;2022-11-13T02:56:31;94805.50;;;15.53;42.54
70902;BME280;58548;47.210;8.618;2022-11-13T02:58:57;94754.28;;;15.15;42.84
70902;BME280;58548;47.210;8.618;2022-11-13T03:01:23;94771.91;;;15.21;43.02
70902;BME280;58548;47.210;8.618;2022-11-13T03:03:53;94771.91;;;15.28;42.73
70902;BME280;58548;47.210;8.618;2022-11-13T03:06:24;94778.34;;;15.26;42.67
70902;BME280;58548;47.210;8.618;2022-11-13T03:08:57;94774.13;;;15.31;42.64
70902;BME280;58548;47.210;8.618;2022-11-13T03:11:25;94764.41;;;15.32;42.75
70902;BME280;58548;47.210;8.618;2022-11-13T03:13:53;94790.72;;;15.59;42.28
70902;BME280;58548;47.210;8.618;2022-11-13T03:16:21;94781.00;;;15.46;42.63
70902;BME280;58548;47.210;8.618;2022-11-13T03:18:47;94783.25;;;15.35;42.53
70902;BME280;58548;47.210;8.618;2022-11-13T03:21:15;94767.03;;;15.32;43.10
70902;BME280;58548;47.210;8.618;2022-11-13T03:23:46;94755.09;;;15.22;42.74
70902;BME280;58548;47.210;8.618;2022-11-13T03:26:16;94774.13;;;15.38;42.82
70902;BME280;58548;47.210;8.618;2022-11-13T03:28:47;94781.41;;;15.49;43.38
70902;BME280;58548;47.210;8.618;2022-11-13T03:31:13;94763.19;;;15.34;42.58
70902;BME280;58548;47.210;8.618;2022-11-13T03:33:44;94759.94;;;15.39;42.88
70902;BME280;58548;47.210;8.618;2022-11-13T03:36:10;94741.72;;;15.31;42.92
70902;BME280;58548;47.210;8.618;2022-11-13T03:38:41;94768.44;;;15.55;42.52
70902;BME280;58548;47.210;8.618;2022-11-13T03:41:06;94749.22;;;15.34;42.45
70902;BME280;58548;47.210;8.618;2022-11-13T03:43:35;94768.22;;;15.49;42.79
70902;BME280;58548;47.210;8.618;2022-11-13T03:46:03;94748.19;;;15.35;42.69
70902;BME280;58548;47.210;8.618;2022-11-13T03:48:29;94769.06;;;15.57;42.95
70902;BME280;58548;47.210;8.618;2022-11-13T03:50:55;94762.78;;;15.51;42.32
70902;BME280;58548;47.210;8.618;2022-11-13T03:53:21;94754.47;;;15.34;42.93
70902;BME280;58548;47.210;8.618;2022-11-13T03:55:47;94745.56;;;15.35;43.13
70902;BME280;58548;47.210;8.618;2022-11-13T03:58:13;94742.13;;;15.28;43.23
70902;BME280;58548;47.210;8.618;2022-11-13T04:00:45;94752.06;;;15.39;43.08
70902;BME280;58548;47.210;8.618;2022-11-13T04:03:14;94758.31;;;15.45;43.17
70902;BME280;58548;47.210;8.618;2022-11-13T04:05:42;94745.78;;;15.40;43.36
70902;BME280;58548;47.210;8.618;2022-11-13T04:08:08;94737.25;;;15.51;43.34
70902;BME280;58548;47.210;8.618;2022-11-13T04:10:37;94717.03;;;15.38;43.16
70902;BME280;58548;47.210;8.618;2022-11-13T04:13:03;94733.22;;;15.56;42.99
70902;BME280;58548;47.210;8.618;2022-11-13T04:15:29;94718.66;;;15.46;42.95
70902;BME280;58548;47.210;8.618;2022-11-13T04:17:55;94719.47;;;15.33;43.23
70902;BME280;58548;47.210;8.618;2022-11-13T04:20:23;94715.81;;;15.41;43.19
70902;BME280;58548;47.210;8.618;2022-11-13T04:22:50;94726.72;;;15.51;43.08
70902;BME280;58548;47.210;8.618;2022-11-13T04:25:20;94729.97;;;15.53;42.70
70902;BME280;58548;47.210;8.618;2022-11-13T04:27:49;94724.69;;;15.53;42.89
70902;BME280;58548;47.210;8.618;2022-11-13T04:30:18;94721.88;;;15.55;42.67
70902;BME280;58548;47.210;8.618;2022-11-13T04:32:44;94732.59;;;15.60;42.93
70902;BME280;58548;47.210;8.618;2022-11-13T04:35:10;94685.84;;;15.42;42.81
70902;BME280;58548;47.210;8.618;2022-11-13T04:37:37;94708.91;;;15.67;42.70
70902;BME280;58548;47.210;8.618;2022-11-13T04:40:03;94704.41;;;15.74;42.76
70902;BME280;58548;47.210;8.618;2022-11-13T04:42:32;94712.50;;;15.79;43.08
70902;BME280;58548;47.210;8.618;2022-11-13T04:45:18;94709.28;;;15.77;42.64
70902;BME280;58548;47.210;8.618;2022-11-13T04:47:47;94710.50;;;15.75;42.80
70902;BME280;58548;47.210;8.618;2022-11-13T04:50:16;94701.78;;;15.74;42.52
70902;BME280;58548;47.210;8.618;2022-11-13T04:52:48;94714.34;;;15.72;42.69
70902;BME280;58548;47.210;8.618;2022-11-13T04:55:19;94660.75;;;15.40;42.51
70902;BME280;58548;47.210;8.618;2022-11-13T04:57:46;94700.19;;;15.60;42.62
70902;BME280;58548;47.210;8.618;2022-11-13T05:00:14;94720.63;;;15.71;42.74
70902;BME280;58548;47.210;8.618;2022-11-13T05:02:40;94709.28;;;15.71;42.45
70902;BME280;58548;47.210;8.618;2022-11-13T05:05:07;94701.19;;;15.65;42.07
70902;BME280;58548;47.210;8.618;2022-11-13T05:07:35;94705.66;;;15.58;42.41
70902;BME280;58548;47.210;8.618;2022-11-13T05:10:06;94699.22;;;15.54;42.22
70902;BME280;58548;47.210;8.618;2022-11-13T05:12:32;94685.44;;;15.45;42.50
70902;BME280;58548;47.210;8.618;2022-11-13T05:15:01;94717.63;;;15.61;42.76
70902;BME280;58548;47.210;8.618;2022-11-13T05:17:27;94691.50;;;15.52;42.27
70902;BME280;58548;47.210;8.618;2022-11-13T05:19:54;94695.94;;;15.59;42.38
70902;BME280;58548;47.210;8.618;2022-11-13T05:22:20;94678.97;;;15.48;42.09
70902;BME280;58548;47.210;8.618;2022-11-13T05:24:49;94685.59;;;15.57;42.46
70902;BME280;58548;47.210;8.618;2022-11-13T05:27:17;94699.19;;;15.61;42.66
70902;BME280;58548;47.210;8.618;2022-11-13T05:29:43;94684.00;;;15.63;42.63
70902;BME280;58548;47.210;8.618;2022-11-13T05:32:13;94662.78;;;15.44;42.83
70902;BME280;58548;47.210;8.618;2022-11-13T05:34:39;94674.09;;;15.51;42.35
70902;BME280;58548;47.210;8.618;2022-11-13T05:37:07;94660.56;;;15.28;42.83
70902;BME280;58548;47.210;8.618;2022-11-13T05:39:33;94685.63;;;15.44;42.72
70902;BME280;58548;47.210;8.618;2022-11-13T05:41:59;94677.56;;;15.32;42.55
70902;BME280;58548;47.210;8.618;2022-11-13T05:44:25;94598.25;;;14.68;42.93
70902;BME280;58548;47.210;8.618;2022-11-13T05:46:53;94661.19;;;15.03;43.06
70902;BME280;58548;47.210;8.618;2022-11-13T05:49:21;94635.69;;;15.03;43.08
70902;BME280;58548;47.210;8.618;2022-11-13T05:51:47;94643.78;;;15.15;42.57
70902;BME280;58548;47.210;8.618;2022-11-13T05:54:22;94664.41;;;15.32;42.40
70902;BME280;58548;47.210;8.618;2022-11-13T05:56:49;94648.00;;;15.30;42.22
70902;BME280;58548;47.210;8.618;2022-11-13T05:59:15;94645.78;;;15.33;42.04
70902;BME280;58548;47.210;8.618;2022-11-13T06:01:41;94636.69;;;15.22;42.11
70902;BME280;58548;47.210;8.618;2022-11-13T06:04:08;94654.69;;;15.39;42.42
70902;BME280;58548;47.210;8.618;2022-11-13T06:06:36;94634.25;;;15.28;42.27
70902;BME280;58548;47.210;8.618;2022-11-13T06:09:06;94632.03;;;15.31;42.17
70902;BME280;58548;47.210;8.618;2022-11-13T06:11:32;94630.00;;;15.27;42.54
70902;BME280;58548;47.210;8.618;2022-11-13T06:13:59;94636.28;;;15.32;42.43
70902;BME280;58548;47.210;8.618;2022-11-13T06:16:33;94635.84;;;15.29;41.98
70902;BME280;58548;47.210;8.618;2022-11-13T06:19:05;94645.34;;;15.36;41.90
70902;BME280;58548;47.210;8.618;2022-11-13T06:21:36;94651.03;;;15.40;42.01
70902;BME280;58548;47.210;8.618;2022-11-13T06:24:05;94617.47;;;15.15;42.04
70902;BME280;58548;47.210;8.618;2022-11-13T06:26:35;94648.41;;;15.27;42.39
70902;BME280;58548;47.210;8.618;2022-11-13T06:29:05;94624.16;;;15.04;42.19
70902;BME280;58548;47.210;8.618;2022-11-13T06:31:35;94616.28;;;14.98;42.40
70902;BME280;58548;47.210;8.618;2022-11-13T06:34:05;94621.94;;;14.95;42.42
70902;BME280;58548;47.210;8.618;2022-11-13T06:36:34;94639.31;;;15.16;42.10
70902;BME280;58548;47.210;8.618;2022-11-13T06:39:00;94621.91;;;15.15;42.40
70902;BME280;58548;47.210;8.618;2022-11-13T06:41:28;94615.03;;;15.20;42.63
70902;BME280;58548;47.210;8.618;2022-11-13T06:43:59;94632.81;;;15.32;42.00
70902;BME280;58548;47.210;8.618;2022-11-13T06:46:29;94628.81;;;15.22;42.14
70902;BME280;58548;47.210;8.618;2022-11-13T06:48:58;94636.91;;;15.14;42.20
70902;BME280;58548;47.210;8.618;2022-11-13T06:51:27;94633.25;;;15.15;42.38
70902;BME280;58548;47.210;8.618;2022-11-13T06:53:56;94605.53;;;15.06;42.00
70902;BME280;58548;47.210;8.618;2022-11-13T06:56:23;94638.50;;;15.29;41.94
70902;BME280;58548;47.210;8.618;2022-11-13T06:58:49;94607.53;;;15.31;42.01
70902;BME280;58548;47.210;8.618;2022-11-13T07:01:20;94619.66;;;15.45;41.74
70902;BME280;58548;47.210;8.618;2022-11-13T07:03:47;94575.84;;;14.92;41.70
70902;BME280;58548;47.210;8.618;2022-11-13T07:06:17;94615.44;;;15.17;41.42
70902;BME280;58548;47.210;8.618;2022-11-13T07:08:46;94612.81;;;15.17;41.55
70902;BME280;58548;47.210;8.618;2022-11-13T07:11:20;94636.06;;;15.34;41.64
70902;BME280;58548;47.210;8.618;2022-11-13T07:13:49;94633.25;;;15.35;41.98
70902;BME280;58548;47.210;8.618;2022-11-13T07:16:16;94602.09;;;15.12;41.98
70902;BME280;58548;47.210;8.618;2022-11-13T07:18:42;94628.13;;;15.47;41.73
70902;BME280;58548;47.210;8.618;2022-11-13T07:21:11;94605.72;;;15.31;41.78
70902;BME280;58548;47.210;8.618;2022-11-13T07:23:39;94601.88;;;15.27;41.82
70902;BME280;58548;47.210;8.618;2022-11-13T07:26:09;94603.28;;;15.30;41.85
70902;BME280;58548;47.210;8.618;2022-11-13T07:28:38;94613.38;;;15.33;42.20
70902;BME280;58548;47.210;8.618;2022-11-13T07:31:06;94586.28;;;15.19;42.04
70902;BME280;58548;47.210;8.618;2022-11-13T07:33:32;94620.44;;;15.46;41.65
70902;BME280;58548;47.210;8.618;2022-11-13T07:36:03;94617.03;;;15.45;41.43
70902;BME280;58548;47.210;8.618;2022-11-13T07:38:30;94611.75;;;15.38;41.38
70902;BME280;58548;47.210;8.618;2022-11-13T07:41:01;94609.75;;;15.34;41.52
70902;BME280;58548;47.210;8.618;2022-11-13T07:43:30;94610.56;;;15.34;41.68
70902;BME280;58548;47.210;8.618;2022-11-13T07:46:00;94601.47;;;15.30;41.17
70902;BME280;58548;47.210;8.618;2022-11-13T07:48:28;94587.94;;;15.13;41.68
70902;BME280;58548;47.210;8.618;2022-11-13T07:51:06;94604.53;;;15.20;41.56
70902;BME280;58548;47.210;8.618;2022-11-13T07:53:32;94588.72;;;15.27;41.86
70902;BME280;58548;47.210;8.618;2022-11-13T07:56:04;94582.63;;;15.27;41.85
70902;BME280;58548;47.210;8.618;2022-11-13T07:58:30;94587.47;;;15.36;41.69
70902;BME280;58548;47.210;8.618;2022-11-13T08:01:03;94593.94;;;15.41;41.91
70902;BME280;58548;47.210;8.618;2022-11-13T08:03:32;94550.69;;;15.16;41.75
70902;BME280;58548;47.210;8.618;2022-11-13T08:05:59;94574.31;;;15.43;41.81
70902;BME280;58548;47.210;8.618;2022-11-13T08:08:26;94568.28;;;15.22;41.54
70902;BME280;58548;47.210;8.618;2022-11-13T08:10:52;94565.66;;;15.22;41.82
70902;BME280;58548;47.210;8.618;2022-11-13T08:13:20;94592.56;;;15.31;41.68
70902;BME280;58548;47.210;8.618;2022-11-13T08:15:48;94589.94;;;15.25;42.02
70902;BME280;58548;47.210;8.618;2022-11-13T08:18:16;94596.44;;;15.08;42.11
70902;BME280;58548;47.210;8.618;2022-11-13T08:20:42;94583.91;;;14.90;42.13
70902;BME280;58548;47.210;8.618;2022-11-13T08:23:11;94563.69;;;14.84;42.07
70902;BME280;58548;47.210;8.618;2022-11-13T08:25:41;94576.22;;;15.02;41.86
70902;BME280;58548;47.210;8.618;2022-11-13T08:28:07;94602.53;;;14.96;41.88
70902;BME280;58548;47.210;8.618;2022-11-13T08:30:35;94589.19;;;14.70;42.66
70902;BME280;58548;47.210;8.618;2022-11-13T08:33:01;94612.25;;;15.02;42.58
70902;BME280;58548;47.210;8.618;2022-11-13T08:35:28;94597.66;;;15.19;42.10
70902;BME280;58548;47.210;8.618;2022-11-13T08:37:54;94564.91;;;14.88;41.65
70902;BME280;58548;47.210;8.618;2022-11-13T08:40:25;94593.00;;;15.21;41.91
70902;BME280;58548;47.210;8.618;2022-11-13T08:42:50;94560.63;;;15.14;41.40
70902;BME280;58548;47.210;8.618;2022-11-13T08:45:16;94562.00;;;15.30;42.17
70902;BME280;58548;47.210;8.618;2022-11-13T08:47:44;94568.03;;;15.44;42.09
70902;BME280;58548;47.210;8.618;2022-11-13T08:50:10;94568.78;;;15.51;41.50
70902;BME280;58548;47.210;8.618;2022-11-13T08:52:52;94573.00;;;15.59;42.04
70902;BME280;58548;47.210;8.618;2022-11-13T08:55:20;94556.66;;;15.50;41.63
70902;BME280;58548;47.210;8.618;2022-11-13T08:57:49;94569.38;;;15.67;41.69
70902;BME280;58548;47.210;8.618;2022-11-13T09:00:19;94544.47;;;15.63;41.64
70902;BME280;58548;47.210;8.618;2022-11-13T09:02:52;94541.56;;;15.71;41.12
70902;BME280;58548;47.210;8.618;2022-11-13T09:05:18;94545.63;;;15.74;41.09
70902;BME280;58548;47.210;8.618;2022-11-13T09:07:46;94524.75;;;15.72;41.34
70902;BME280;58548;47.210;8.618;2022-11-13T09:10:13;94518.28;;;15.68;41.08
70902;BME280;58548;47.210;8.618;2022-11-13T09:12:39;94540.69;;;15.91;40.96
70902;BME280;58548;47.210;8.618;2022-11-13T09:15:05;94546.31;;;16.01;40.73
70902;BME280;58548;47.210;8.618;2022-11-13T09:17:33;94528.56;;;15.83;40.59
70902;BME280;58548;47.210;8.618;2022-11-13T09:20:04;94549.22;;;15.86;40.25
70902;BME280;58548;47.210;8.618;2022-11-13T09:22:33;94527.41;;;15.72;41.00
70902;BME280;58548;47.210;8.618;2022-11-13T09:25:03;94566.22;;;15.90;40.73
70902;BME280;58548;47.210;8.618;2022-11-13T09:27:31;94521.19;;;15.60;40.70
70902;BME280;58548;47.210;8.618;2022-11-13T09:29:57;94536.34;;;15.64;40.71
70902;BME280;58548;47.210;8.618;2022-11-13T09:32:23;94532.19;;;15.82;40.54
70902;BME280;58548;47.210;8.618;2022-11-13T09:34:49;94509.91;;;15.91;39.85
70902;BME280;58548;47.210;8.618;2022-11-13T09:37:15;94527.63;;;16.09;40.22
70902;BME280;58548;47.210;8.618;2022-11-13T09:39:41;94506.38;;;16.04;40.12
70902;BME280;58548;47.210;8.618;2022-11-13T09:42:20;94529.34;;;16.22;40.38
70902;BME280;58548;47.210;8.618;2022-11-13T09:45:06;94524.63;;;16.31;40.01
70902;BME280;58548;47.210;8.618;2022-11-13T09:47:43;94519.22;;;16.26;39.50
70902;BME280;58548;47.210;8.618;2022-11-13T09:50:22;94550.97;;;16.38;38.90
70902;BME280;58548;47.210;8.618;2022-11-13T09:52:49;94551.81;;;16.32;39.85
70902;BME280;58548;47.210;8.618;2022-11-13T09:55:21;94547.22;;;16.20;39.83
70902;BME280;58548;47.210;8.618;2022-11-13T09:58:22;94511.38;;;16.12;39.63
70902;BME280;58548;47.210;8.618;2022-11-13T10:00:53;94524.19;;;16.34;39.33
70902;BME280;58548;47.210;8.618;2022-11-13T10:03:43;94506.56;;;16.09;39.41
70902;BME280;58548;47.210;8.618;2022-11-13T10:06:22;94508.88;;;16.24;39.67
70902;BME280;58548;47.210;8.618;2022-11-13T10:09:08;94513.63;;;16.41;39.42
70902;BME280;58548;47.210;8.618;2022-11-13T10:11:39;94517.59;;;16.50;38.88
70902;BME280;58548;47.210;8.618;2022-11-13T10:19:58;94475.91;;;16.40;39.34
70902;BME280;58548;47.210;8.618;2022-11-13T10:25:23;94514.56;;;16.72;39.59
70902;BME280;58548;47.210;8.618;2022-11-13T10:30:22;94492.44;;;16.73;38.86
70902;BME280;58548;47.210;8.618;2022-11-13T10:32:49;94491.78;;;16.78;39.09
70902;BME280;58548;47.210;8.618;2022-11-13T10:35:58;94486.06;;;16.81;39.15
70902;BME280;58548;47.210;8.618;2022-11-13T10:41:24;94499.00;;;16.89;39.19
70902;BME280;58548;47.210;8.618;2022-11-13T10:44:27;94482.13;;;16.90;38.37
70902;BME280;58548;47.210;8.618;2022-11-13T10:47:17;94466.31;;;16.71;38.54
70902;BME280;58548;47.210;8.618;2022-11-13T10:49:46;94492.53;;;16.85;38.12
70902;BME280;58548;47.210;8.618;2022-11-13T10:52:24;94495.59;;;16.82;38.06
70902;BME280;58548;47.210;8.618;2022-11-13T10:57:58;94464.50;;;16.47;38.76
70902;BME280;58548;47.210;8.618;2022-11-13T11:00:32;94471.31;;;16.54;38.36
70902;BME280;58548;47.210;8.618;2022-11-13T11:03:30;94491.28;;;16.43;38.26
70902;BME280;58548;47.210;8.618;2022-11-13T11:05:59;94457.72;;;16.32;38.46
70902;BME280;58548;47.210;8.618;2022-11-13T11:08:31;94476.66;;;16.48;38.26
70902;BME280;58548;47.210;8.618;2022-11-13T11:11:00;94483.84;;;16.59;38.83
70902;BME280;58548;47.210;8.618;2022-11-13T11:13:47;94468.84;;;16.60;38.50
70902;BME280;58548;47.210;8.618;2022-11-13T11:16:20;94452.13;;;16.66;37.77
70902;BME280;58548;47.210;8.618;2022-11-13T11:18:54;94470.81;;;16.64;37.67
70902;BME280;58548;47.210;8.618;2022-11-13T11:21:33;94459.59;;;16.50;38.40
70902;BME280;58548;47.210;8.618;2022-11-13T11:24:19;94436.09;;;16.49;38.09
70902;BME280;58548;47.210;8.618;2022-11-13T11:34:41;94427.72;;;16.33;38.30
70902;BME280;58548;47.210;8.618;2022-11-13T11:39:54;94440.22;;;16.63;38.10
70902;BME280;58548;47.210;8.618;2022-11-13T11:45:35;94409.81;;;16.61;38.56
70902;BME280;58548;47.210;8.618;2022-11-13T11:48:10;94424.38;;;16.82;37.84
70902;BME280;58548;47.210;8.618;2022-11-13T11:50:58;94413.56;;;16.90;38.71
70902;BME280;58548;47.210;8.618;2022-11-13T12:04:37;94402.69;;;16.61;38.29
70902;BME280;58548;47.210;8.618;2022-11-13T12:13:11;94406.09;;;16.68;38.33
70902;BME280;58548;47.210;8.618;2022-11-13T12:18:43;94396.13;;;16.70;38.52
70902;BME280;58548;47.210;8.618;2022-11-13T12:21:32;94394.50;;;16.69;37.70
70902;BME280;58548;47.210;8.618;2022-11-13T12:24:21;94372.44;;;16.45;38.44
70902;BME280;58548;47.210;8.618;2022-11-13T12:27:17;94397.50;;;16.73;37.96
70902;BME280;58548;47.210;8.618;2022-11-13T12:32:35;94394.09;;;16.72;38.61
70902;BME280;58548;47.210;8.618;2022-11-13T12:35:16;94360.66;;;16.66;38.14
70902;BME280;58548;47.210;8.618;2022-11-13T12:40:27;94384.69;;;16.77;38.28
70902;BME280;58548;47.210;8.618;2022-11-13T12:45:55;94357.44;;;16.83;38.13
70902;BME280;58548;47.210;8.618;2022-11-13T12:48:35;94354.94;;;16.88;37.71
70902;BME280;58548;47.210;8.618;2022-11-13T12:51:11;94348.41;;;16.91;38.12
70902;BME280;58548;47.210;8.618;2022-11-13T12:53:50;94338.38;;;16.81;37.53
70902;BME280;58548;47.210;8.618;2022-11-13T12:56:30;94331.22;;;16.69;38.23
70902;BME280;58548;47.210;8.618;2022-11-13T13:01:58;94342.78;;;16.87;37.51
70902;BME280;58548;47.210;8.618;2022-11-13T13:12:50;94351.44;;;16.57;38.45
70902;BME280;58548;47.210;8.618;2022-11-13T13:23:30;94362.72;;;16.46;38.61
70902;BME280;58548;47.210;8.618;2022-11-13T13:26:24;94357.72;;;16.56;38.39
70902;BME280;58548;47.210;8.618;2022-11-13T13:29:07;94360.81;;;16.53;38.14
70902;BME280;58548;47.210;8.618;2022-11-13T13:31:43;94375.47;;;16.49;38.33
70902;BME280;58548;47.210;8.618;2022-11-13T13:48:41;94360.00;;;16.52;38.78
70902;BME280;58548;47.210;8.618;2022-11-13T13:51:30;94358.91;;;16.60;38.06
70902;BME280;58548;47.210;8.618;2022-11-13T13:54:08;94335.63;;;16.38;38.43
70902;BME280;58548;47.210;8.618;2022-11-13T13:56:41;94315.72;;;16.24;38.38
70902;BME280;58548;47.210;8.618;2022-11-13T13:59:28;94351.00;;;16.41;38.52
70902;BME280;58548;47.210;8.618;2022-11-13T14:01:57;94343.69;;;16.43;38.31
70902;BME280;58548;47.210;8.618;2022-11-13T14:04:28;94353.03;;;16.39;38.39
70902;BME280;58548;47.210;8.618;2022-11-13T14:06:59;94316.00;;;16.16;38.47
70902;BME280;58548;47.210;8.618;2022-11-13T14:09:29;94333.78;;;16.20;38.30
70902;BME280;58548;47.210;8.618;2022-11-13T14:12:01;94303.72;;;16.09;38.46
70902;BME280;58548;47.210;8.618;2022-11-13T14:14:27;94317.31;;;16.06;38.71
70902;BME280;58548;47.210;8.618;2022-11-13T14:16:55;94320.16;;;16.23;38.97
70902;BME280;58548;47.210;8.618;2022-11-13T14:19:23;94326.25;;;16.42;38.24
70902;BME280;58548;47.210;8.618;2022-11-13T14:22:01;94311.75;;;16.33;38.43
70902;BME280;58548;47.210;8.618;2022-11-13T14:26:55;94295.72;;;16.35;39.15
70902;BME280;58548;47.210;8.618;2022-11-13T14:32:08;94299.59;;;16.32;38.87
70902;BME280;58548;47.210;8.618;2022-11-13T14:34:41;94259.63;;;16.17;39.30
70902;BME280;58548;47.210;8.618;2022-11-13T14:37:30;94304.72;;;16.46;38.96
70902;BME280;58548;47.210;8.618;2022-11-13T14:40:02;94282.91;;;16.38;39.01
70902;BME280;58548;47.210;8.618;2022-11-13T14:42:35;94274.50;;;16.30;39.30
70902;BME280;58548;47.210;8.618;2022-11-13T14:45:16;94302.25;;;16.51;39.28
70902;BME280;58548;47.210;8.618;2022-11-13T14:48:28;94289.06;;;16.51;38.95
70902;BME280;58548;47.210;8.618;2022-11-13T14:56:51;94279.25;;;16.39;39.10
70902;BME280;58548;47.210;8.618;2022-11-13T14:59:26;94286.94;;;16.41;39.16
70902;BME280;58548;47.210;8.618;2022-11-13T15:01:56;94292.56;;;16.45;39.64
70902;BME280;58548;47.210;8.618;2022-11-13T15:04:25;94303.38;;;16.55;39.67
70902;BME280;58548;47.210;8.618;2022-11-13T15:06:59;94301.34;;;16.57;38.82
70902;BME280;58548;47.210;8.618;2022-11-13T15:09:26;94282.38;;;16.48;38.86
70902;BME280;58548;47.210;8.618;2022-11-13T15:11:55;94295.94;;;16.52;38.72